In Rescue
 
Open Full Screen Window  High Contrast Mode
July 23, 2019 1:49 AM EDT
Weather Information
Wind Direction
  ---
Wind Speed
  00 kt (0 mph)
Wind Gust
  00 kt (0 mph)
Altimeter
30.02 in
Visibility
10 SM
Temperature
12° C
54° F
Dewpoint
11° C
52° F
Humidity
94%
1hr Rain Fall
00.00 in.
24hr Rain Fall
00.00 in.
Sky Condition
Clear
VFR

METAR KD95 230549Z AUTO 00000KT 10SM CLR 12/11 A3002 RMK AO2 T01200111

FAA Disclaimer: The data displayed is for advisory purposes only and is not to be used for flight planning or operations.